Time;durP1;ratioP1;P1;durP2;ratioP2;P2;SDS_P1;SDS_P2;PMS_P1;PMS_P2;Temp;Humidity;BMP_temperature;BMP_pressure;BME280_temperature;BME280_humidity;BME280_pressure;Samples;Min_cycle;Max_cycle;Signal;HPM_P1;HPM_P2
2022/08/13 00:01:40;;;;;;;22.65;6.47;;;;;;;23.16;64.67;99978.91;10325007;28;20443;-72
2022/08/13 00:17:08;;;;;;;12.63;6.40;;;;;;;23.11;62.18;99971.53;10331565;28;20397;-73
2022/08/13 00:22:12;;;;;;;10.70;6.03;;;;;;;22.89;61.47;99912.03;10330976;28;20066;-72
2022/08/13 00:27:13;;;;;;;17.60;6.25;;;;;;;23.40;62.63;99971.22;10330800;28;20062;-72
2022/08/13 00:32:16;;;;;;;10.00;6.13;;;;;;;22.98;61.31;99898.88;10338831;28;20045;-72
2022/08/13 00:37:17;;;;;;;16.13;6.13;;;;;;;23.54;60.43;99971.53;10339152;28;20507;-73
2022/08/13 00:42:22;;;;;;;14.43;6.80;;;;;;;23.57;60.85;99985.41;10338555;28;20034;-73
2022/08/13 00:52:47;;;;;;;;;;;;;;;23.74;60.36;99974.41;10339725;28;20490;-73
2022/08/13 00:57:49;;;;;;;11.43;5.85;;;;;;;23.54;61.53;99971.53;10338017;28;20301;-73
2022/08/13 01:02:52;;;;;;;11.35;6.32;;;;;;;23.48;62.39;99978.81;10337737;28;20038;-73
2022/08/13 01:07:55;;;;;;;10.60;5.97;;;;;;;23.07;60.83;99900.00;10337772;28;20038;-72
2022/08/13 01:12:57;;;;;;;9.23;5.70;;;;;;;23.36;60.77;99937.56;10337738;28;20046;-73
2022/08/13 01:17:58;;;;;;;16.63;5.88;;;;;;;23.55;61.00;99976.72;10337780;28;20121;-73
2022/08/13 01:23:02;;;;;;;11.18;5.45;;;;;;;23.50;60.62;99952.28;10338283;28;20038;-72
2022/08/13 01:28:03;;;;;;;10.05;5.38;;;;;;;23.65;60.67;99965.09;10337672;28;20453;-73
2022/08/13 01:33:08;;;;;;;10.18;5.72;;;;;;;23.63;60.90;99959.97;10337072;28;20058;-72
2022/08/13 01:38:09;;;;;;;16.33;6.25;;;;;;;23.61;61.21;99948.53;10334563;28;20038;-71
2022/08/13 01:43:10;;;;;;;21.13;7.15;;;;;;;23.55;61.97;99948.78;10304818;28;20062;-71
2022/08/13 01:53:30;;;;;;;8.00;5.45;;;;;;;23.57;61.96;99955.59;10295547;28;20042;-71
2022/08/13 01:58:31;;;;;;;8.05;5.50;;;;;;;23.49;62.64;99947.94;10296276;28;20038;-71
2022/08/13 02:03:32;;;;;;;10.73;5.53;;;;;;;23.46;63.43;99953.91;10295420;28;20074;-72
2022/08/13 02:08:38;;;;;;;12.77;5.43;;;;;;;23.29;64.28;99934.28;10295563;28;20093;-72
2022/08/13 02:13:39;;;;;;;13.48;5.97;;;;;;;23.18;64.15;99912.53;10294938;28;20121;-71
2022/08/13 02:18:40;;;;;;;20.65;5.70;;;;;;;23.18;64.42;99917.97;10295109;28;20142;-71
2022/08/13 02:23:41;;;;;;;25.10;6.60;;;;;;;23.21;65.04;99928.28;10294974;28;20242;-71
2022/08/13 02:28:43;;;;;;;23.23;5.97;;;;;;;23.30;65.69;99949.44;10295681;28;20475;-71
2022/08/13 02:33:45;;;;;;;17.80;6.70;;;;;;;23.24;66.35;99938.59;10294186;28;20529;-71
2022/08/13 02:38:52;;;;;;;18.25;8.43;;;;;;;22.91;67.08;99890.09;10293356;28;20411;-71
2022/08/13 02:43:52;;;;;;;18.40;9.48;;;;;;;23.31;67.75;99948.38;10293856;28;20129;-71
2022/08/13 02:48:58;;;;;;;23.15;9.57;;;;;;;23.30;68.29;99947.53;10293651;28;20177;-71
2022/08/13 02:54:00;;;;;;;19.38;9.07;;;;;;;23.06;68.67;99898.34;10293788;28;20500;-71
2022/08/13 02:59:01;;;;;;;17.85;7.95;;;;;;;23.53;68.93;99949.03;10293105;28;20047;-71
2022/08/13 03:04:02;;;;;;;23.42;8.10;;;;;;;23.65;69.40;99949.63;10293029;28;20054;-72
2022/08/13 03:09:04;;;;;;;15.15;8.05;;;;;;;23.90;69.16;99937.28;10293227;28;20193;-71
2022/08/13 03:14:10;;;;;;;13.98;7.72;;;;;;;23.76;69.12;99879.22;10294041;28;20035;-70
2022/08/13 03:19:11;;;;;;;16.00;7.30;;;;;;;24.59;67.76;99941.56;10293124;28;20151;-70
2022/08/13 03:24:15;;;;;;;23.58;13.68;;;;;;;24.69;67.76;99910.88;10292706;28;20511;-70
2022/08/13 03:29:18;;;;;;;28.88;18.77;;;;;;;24.62;67.44;99891.31;10293068;28;20462;-70
2022/08/13 03:34:20;;;;;;;37.03;17.45;;;;;;;25.13;67.28;99926.56;10300327;28;20120;-70
2022/08/13 03:39:21;;;;;;;22.48;14.40;;;;;;;25.89;65.39;99923.66;10294055;28;20053;-70
2022/08/13 03:44:21;;;;;;;29.73;11.73;;;;;;;25.95;65.50;99935.34;10303491;28;20530;-70
2022/08/13 03:49:24;;;;;;;25.73;14.00;;;;;;;25.65;66.09;99914.50;10323348;28;20128;-71
2022/08/13 03:54:25;;;;;;;14.93;7.45;;;;;;;24.94;65.16;99829.31;10331682;28;20423;-70
2022/08/13 03:59:27;;;;;;;12.30;5.90;;;;;;;25.66;63.55;99922.38;10331230;28;20046;-71
2022/08/13 04:04:28;;;;;;;13.55;6.55;;;;;;;25.71;62.69;99925.06;10331579;28;20068;-70
2022/08/13 04:09:29;;;;;;;12.32;5.82;;;;;;;25.62;62.70;99899.53;10331685;28;20046;-71
2022/08/13 04:14:31;;;;;;;9.93;5.68;;;;;;;25.87;62.09;99928.56;10331044;28;20038;-71
2022/08/13 04:19:33;;;;;;;10.55;5.20;;;;;;;25.58;61.83;99854.97;10331835;28;20069;-73
2022/08/13 04:24:34;;;;;;;18.38;8.13;;;;;;;26.19;61.47;99925.41;10304612;28;20043;-70
2022/08/13 04:29:35;;;;;;;47.72;8.85;;;;;;;26.39;61.01;99907.31;10290590;28;20144;-71
2022/08/13 04:34:35;;;;;;;13.35;5.85;;;;;;;26.71;59.83;99903.25;10292318;28;20514;-72
2022/08/13 04:39:37;;;;;;;22.63;6.30;;;;;;;26.94;59.26;99872.53;10290411;28;20051;-71
2022/08/13 04:50:57;;;;;;;17.77;5.68;;;;;;;27.75;57.21;99869.97;10304706;28;20085;-71
2022/08/13 04:55:59;;;;;;;12.85;5.82;;;;;;;27.67;58.53;99911.53;10308710;28;20049;-71
2022/08/13 05:01:00;;;;;;;18.38;6.72;;;;;;;27.02;59.09;99846.56;10308910;28;20058;-71
2022/08/13 05:06:01;;;;;;;29.77;7.40;;;;;;;27.13;59.92;99891.66;10317536;28;20226;-70
2022/08/13 05:11:02;;;;;;;16.05;6.80;;;;;;;26.68;60.92;99841.16;10329734;28;20140;-72
2022/08/13 05:16:06;;;;;;;16.20;7.20;;;;;;;26.57;61.29;99843.19;10334798;28;20479;-72
2022/08/13 05:21:11;;;;;;;15.15;7.13;;;;;;;26.83;61.14;99868.25;10334751;28;20042;-70
2022/08/13 05:26:12;;;;;;;17.98;7.57;;;;;;;26.75;61.12;99839.75;10320570;28;20062;-75
2022/08/13 05:31:13;;;;;;;17.50;7.75;;;;;;;27.39;61.02;99880.53;10315474;28;20047;-69
2022/08/13 05:36:14;;;;;;;26.08;8.18;;;;;;;28.22;58.62;99893.59;10295158;28;20092;-74
2022/08/13 05:41:17;;;;;;;21.65;8.07;;;;;;;28.98;56.53;99888.00;10296327;28;20166;-71
2022/08/13 05:46:19;;;;;;;;;;;;;;;29.90;55.12;99888.94;10297162;28;20479;-71
2022/08/13 05:51:19;;;;;;;27.90;8.23;;;;;;;29.68;53.86;99831.41;10295992;28;19962;-71
2022/08/13 05:56:24;;;;;;;21.65;7.50;;;;;;;30.14;52.37;99871.41;10296264;28;20132;-75
2022/08/13 06:06:44;;;;;;;11.85;7.60;;;;;;;30.36;50.47;99811.16;10296071;28;20042;-72
2022/08/13 06:11:45;;;;;;;20.52;7.50;;;;;;;30.75;49.66;99869.91;10296350;28;20407;-71
2022/08/13 06:16:51;;;;;;;27.25;7.63;;;;;;;30.97;47.55;99876.53;10295310;28;20146;-73
2022/08/13 06:21:55;;;;;;;18.58;6.80;;;;;;;31.01;48.24;99858.31;10295354;28;20189;-72
2022/08/13 06:27:00;;;;;;;14.90;6.95;;;;;;;31.12;47.41;99852.22;10293579;28;20055;-73
2022/08/13 06:32:04;;;;;;;21.77;6.75;;;;;;;31.15;46.68;99861.75;10295192;28;20522;-71
2022/08/13 06:37:05;;;;;;;21.63;7.20;;;;;;;30.80;45.66;99804.00;10294808;28;20042;-72
2022/08/13 06:42:06;;;;;;;23.30;7.55;;;;;;;30.56;45.68;99807.09;10294517;28;20102;-73
2022/08/13 06:47:07;;;;;;;15.25;6.43;;;;;;;31.22;45.67;99851.13;10294236;28;20117;-72
2022/08/13 06:52:08;;;;;;;16.05;6.85;;;;;;;31.41;45.15;99839.91;10294109;28;20091;-71
2022/08/13 06:57:09;;;;;;;13.85;6.43;;;;;;;31.92;43.55;99832.91;10294592;28;20503;-71
2022/08/13 07:02:17;;;;;;;21.13;6.80;;;;;;;32.38;40.36;99825.88;10293658;28;20511;-73
2022/08/13 07:07:18;;;;;;;18.67;6.53;;;;;;;32.53;37.31;99810.84;10293335;28;20054;-78
2022/08/13 07:12:20;;;;;;;14.52;5.82;;;;;;;32.51;35.86;99777.34;10293332;28;20074;-75
2022/08/13 07:17:21;;;;;;;23.53;7.57;;;;;;;32.88;34.70;99810.72;10293209;28;20100;-71
2022/08/13 07:22:22;;;;;;;13.48;6.40;;;;;;;33.01;33.26;99784.94;10293501;28;20046;-72
2022/08/13 07:27:23;;;;;;;15.25;5.97;;;;;;;33.06;33.37;99792.22;10291866;28;20075;-71
2022/08/13 07:32:27;;;;;;;20.20;6.10;;;;;;;33.35;32.56;99785.88;10292202;28;20042;-77
2022/08/13 07:37:28;;;;;;;11.30;5.68;;;;;;;33.58;31.99;99805.66;10291569;28;20487;-72
2022/08/13 07:42:32;;;;;;;16.08;5.63;;;;;;;33.60;32.48;99781.38;10291902;28;20049;-73
2022/08/13 07:47:35;;;;;;;19.75;6.95;;;;;;;33.58;32.38;99731.31;10291867;28;20490;-75
2022/08/13 07:52:36;;;;;;;24.20;5.40;;;;;;;34.30;31.31;99789.81;10291456;28;20113;-73
2022/08/13 07:57:47;;;;;;;16.17;4.60;;;;;;;34.27;30.13;99760.16;10291434;28;20057;-72
2022/08/13 08:03:01;;;;;;;30.98;5.35;;;;;;;34.84;29.09;99792.44;10291954;28;20129;-73
2022/08/13 08:08:04;;;;;;;16.83;5.10;;;;;;;34.12;28.85;99771.84;10291773;28;20043;-74
2022/08/13 08:13:06;;;;;;;12.30;4.78;;;;;;;33.53;29.22;99762.59;10291655;28;20502;-73
2022/08/13 08:18:07;;;;;;;19.92;4.40;;;;;;;33.59;28.40;99754.94;10291487;28;20038;-73
2022/08/13 08:23:11;;;;;;;14.80;4.47;;;;;;;34.09;27.11;99743.81;10291345;28;20495;-72
2022/08/13 08:28:12;;;;;;;11.25;4.57;;;;;;;34.78;27.87;99759.91;10291023;28;20463;-73
2022/08/13 08:33:13;;;;;;;16.05;5.18;;;;;;;34.79;28.36;99715.41;10291265;28;20046;-73
2022/08/13 08:43:35;;;;;;;32.55;4.60;;;;;;;35.04;26.43;99702.44;10290723;28;20038;-76
2022/08/13 08:48:36;;;;;;;20.38;3.70;;;;;;;35.46;26.34;99742.72;10290368;28;20513;-75
2022/08/13 08:53:46;;;;;;;7.80;3.25;;;;;;;35.02;25.80;99673.53;10298555;28;20103;-75
2022/08/13 08:58:48;;;;;;;13.50;3.58;;;;;;;35.44;25.53;99741.09;10298448;28;20043;-77
2022/08/13 09:03:51;;;;;;;16.85;3.22;;;;;;;35.87;24.89;99730.50;10298285;28;20042;-73
2022/08/13 09:08:53;;;;;;;18.75;3.10;;;;;;;35.86;23.36;99707.56;10298075;28;20047;-77
2022/08/13 09:13:55;;;;;;;18.92;3.58;;;;;;;36.21;23.29;99731.03;10297793;28;20043;-76
2022/08/13 09:18:56;;;;;;;12.53;3.50;;;;;;;35.83;22.74;99660.50;10297009;28;20513;-75
2022/08/13 09:23:57;;;;;;;10.48;2.97;;;;;;;36.20;22.69;99704.53;10296254;28;20066;-73
2022/08/13 09:28:59;;;;;;;10.00;2.90;;;;;;;35.75;23.31;99678.88;10297476;28;20145;-78
2022/08/13 09:34:01;;;;;;;10.98;2.95;;;;;;;36.34;23.13;99683.56;10297976;28;20059;-76
2022/08/13 09:39:02;;;;;;;14.18;3.67;;;;;;;36.48;22.70;99685.09;10297028;28;20043;-75
2022/08/13 09:44:04;;;;;;;31.15;3.70;;;;;;;36.26;22.17;99683.75;10296854;28;20038;-74
2022/08/13 09:49:08;;;;;;;;;;;;;;;36.79;23.07;99679.50;10296353;28;20134;-75
2022/08/13 09:54:09;;;;;;;10.60;3.20;;;;;;;36.92;22.29;99621.28;10296554;28;20441;-70
2022/08/13 09:59:11;;;;;;;26.50;3.50;;;;;;;37.12;20.88;99672.75;10296351;28;20050;-75
2022/08/13 10:04:12;;;;;;;35.80;4.00;;;;;;;37.15;21.38;99633.25;10295823;28;20043;-75
2022/08/13 10:09:13;;;;;;;10.30;2.97;;;;;;;36.50;21.23;99575.69;10295231;28;20047;-74
2022/08/13 10:14:14;;;;;;;31.60;4.47;;;;;;;36.82;20.88;99627.38;10295637;28;20364;-72
2022/08/13 10:19:15;;;;;;;23.00;4.05;;;;;;;36.39;19.86;99579.38;10295214;28;20584;-73
2022/08/13 10:24:15;;;;;;;15.77;4.47;;;;;;;37.01;19.98;99622.69;10294636;28;20039;-73
2022/08/13 10:29:16;;;;;;;16.27;3.63;;;;;;;37.05;19.54;99625.53;10294664;28;20419;-72
2022/08/13 10:34:22;;;;;;;19.95;3.80;;;;;;;37.03;19.09;99627.84;10294941;28;20447;-75
2022/08/13 10:39:23;;;;;;;21.60;3.70;;;;;;;36.74;19.45;99616.16;10294833;28;20047;-73
2022/08/13 10:44:24;;;;;;;19.10;4.25;;;;;;;36.94;19.36;99614.19;10294235;28;20034;-76
2022/08/13 10:49:26;;;;;;;13.77;3.28;;;;;;;37.43;19.18;99618.38;10294140;28;20043;-75
2022/08/13 10:54:26;;;;;;;29.42;4.45;;;;;;;37.36;19.21;99547.00;10293498;28;20066;-71
2022/08/13 10:59:27;;;;;;;24.77;5.30;;;;;;;37.82;19.21;99582.28;10293363;28;20066;-74
2022/08/13 11:04:28;;;;;;;21.40;3.83;;;;;;;37.49;18.90;99522.75;10293379;28;20077;-73
2022/08/13 11:09:30;;;;;;;21.87;3.97;;;;;;;37.98;18.86;99568.31;10292904;28;20057;-72
2022/08/13 11:14:32;;;;;;;15.97;3.80;;;;;;;37.74;17.37;99508.50;10292123;28;20054;-78
2022/08/13 11:19:34;;;;;;;39.28;4.93;;;;;;;37.68;18.27;99508.81;10292535;28;20039;-80
2022/08/13 11:24:35;;;;;;;12.27;3.80;;;;;;;37.65;18.73;99556.66;10293310;28;20503;-78
2022/08/13 11:29:36;;;;;;;15.80;4.30;;;;;;;37.65;18.50;99564.97;10292123;28;20054;-79
2022/08/13 11:34:37;;;;;;;25.03;4.20;;;;;;;37.77;18.84;99549.34;10292206;28;20454;-78
2022/08/13 11:39:38;;;;;;;18.43;5.30;;;;;;;37.53;19.18;99534.69;10293520;28;20042;-74
2022/08/13 11:44:39;;;;;;;17.80;4.00;;;;;;;37.54;19.06;99535.47;10291701;28;20078;-76
2022/08/13 11:49:40;;;;;;;17.73;4.57;;;;;;;37.08;19.16;99464.22;10290553;28;20039;-81
2022/08/13 11:54:40;;;;;;;33.23;4.80;;;;;;;37.45;19.00;99530.97;10308570;28;20057;-78
2022/08/13 11:59:42;;;;;;;41.40;5.83;;;;;;;37.37;18.19;99553.38;10302874;28;20491;-77
2022/08/13 12:04:44;;;;;;;31.90;4.53;;;;;;;36.96;18.63;99511.41;10291785;28;20039;-72
2022/08/13 12:09:44;;;;;;;18.02;4.70;;;;;;;37.19;18.27;99542.75;10292143;28;20043;-77
2022/08/13 12:14:45;;;;;;;28.05;4.30;;;;;;;36.56;17.55;99466.38;10291044;28;20042;-73
2022/08/13 12:19:46;;;;;;;17.73;4.63;;;;;;;36.65;18.37;99484.72;10290902;28;20043;-74
2022/08/13 12:24:47;;;;;;;28.10;4.78;;;;;;;36.46;18.47;99461.38;10293084;28;20034;-72
2022/08/13 12:29:48;;;;;;;26.88;5.20;;;;;;;36.81;18.37;99520.63;10299662;28;20065;-75
2022/08/13 12:34:48;;;;;;;26.25;5.03;;;;;;;36.86;18.79;99532.19;10339597;28;20049;-74
2022/08/13 12:39:55;;;;;;;19.40;4.40;;;;;;;36.90;19.00;99546.09;10340062;28;20495;-76
2022/08/13 12:44:56;;;;;;;19.13;4.78;;;;;;;36.77;18.97;99537.94;10339390;28;20038;-73
2022/08/13 12:49:57;;;;;;;20.35;4.88;;;;;;;36.70;19.47;99551.63;10339656;28;20041;-74
2022/08/13 12:54:58;;;;;;;14.50;4.07;;;;;;;36.74;19.83;99555.28;10339376;28;20134;-77
2022/08/13 12:59:59;;;;;;;44.70;6.03;;;;;;;36.07;20.37;99472.38;10320589;28;20046;-77
2022/08/13 13:05:00;;;;;;;26.60;4.85;;;;;;;35.84;20.19;99482.47;10318466;28;20291;-70
2022/08/13 13:10:02;;;;;;;34.78;5.25;;;;;;;36.24;20.80;99529.25;10325501;28;20391;-73
2022/08/13 13:15:03;;;;;;;;;;;;;;;36.40;20.57;99550.53;10334572;28;20050;-72
2022/08/13 13:20:04;;;;;;;27.77;5.43;;;;;;;36.14;20.62;99534.53;10337902;28;19994;-73
2022/08/13 13:25:06;;;;;;;38.17;6.28;;;;;;;35.99;20.72;99525.06;10337924;28;20038;-70
2022/08/13 13:30:12;;;;;;;29.53;6.20;;;;;;;35.99;20.53;99536.13;10337516;28;20066;-72
2022/08/13 13:35:13;;;;;;;28.10;6.05;;;;;;;35.86;19.96;99519.66;10336193;28;20445;-69
2022/08/13 13:40:16;;;;;;;44.50;6.65;;;;;;;35.50;20.08;99500.56;10324409;28;20039;-72
2022/08/13 13:45:17;;;;;;;27.42;6.00;;;;;;;35.80;19.73;99554.25;10297201;28;20117;-71
2022/08/13 13:50:18;;;;;;;22.83;5.73;;;;;;;35.68;19.81;99546.03;10325279;28;20054;-71
2022/08/13 13:55:19;;;;;;;24.23;5.70;;;;;;;35.48;20.13;99539.59;10330737;28;20457;-71
2022/08/13 14:00:20;;;;;;;23.85;5.75;;;;;;;34.97;20.37;99495.19;10321490;28;20049;-70
2022/08/13 14:05:21;;;;;;;27.45;5.65;;;;;;;35.26;20.59;99543.72;10324561;28;20043;-73
2022/08/13 14:10:23;;;;;;;44.95;6.05;;;;;;;34.89;21.02;99504.44;10323894;28;20108;-71
2022/08/13 14:15:24;;;;;;;;;;;;;;;35.47;21.10;99571.13;10312927;28;20034;-71
2022/08/13 14:20:28;;;;;;;20.20;5.72;;;;;;;34.78;21.36;99509.66;10307412;28;20424;-71
2022/08/13 14:25:30;;;;;;;25.85;5.68;;;;;;;34.58;21.32;99497.66;10308735;28;20046;-74
2022/08/13 14:30:32;;;;;;;29.85;5.45;;;;;;;34.81;20.76;99544.03;10323619;28;20057;-68
2022/08/13 14:35:33;;;;;;;23.55;4.93;;;;;;;34.38;21.17;99485.63;10330149;28;20046;-69
2022/08/13 14:40:34;;;;;;;23.13;5.20;;;;;;;34.67;21.11;99563.69;10324131;28;20041;-73
2022/08/13 14:45:44;;;;;;;19.60;5.90;;;;;;;34.54;21.14;99566.50;10323013;28;20517;-72
2022/08/13 14:50:55;;;;;;;31.95;6.20;;;;;;;34.38;21.83;99582.13;10329013;28;20034;-73
2022/08/13 14:55:58;;;;;;;26.90;6.07;;;;;;;34.17;21.62;99565.72;10324198;28;20041;-72
2022/08/13 15:01:00;;;;;;;24.92;6.45;;;;;;;33.63;22.44;99503.34;10324178;28;20082;-75
2022/08/13 15:06:03;;;;;;;20.10;6.20;;;;;;;33.93;23.19;99558.22;10334640;28;20395;-71
2022/08/13 16:40:01;;;;;;;26.27;8.57;;;;;;;30.88;29.81;99648.88;10270780;28;20433;-72
2022/08/13 16:45:03;;;;;;;20.30;7.65;;;;;;;30.65;30.24;99637.16;10169741;28;20051;-74
2022/08/13 16:50:06;;;;;;;29.93;7.60;;;;;;;30.50;30.72;99648.59;10164093;29;20063;-70
2022/08/13 16:55:07;;;;;;;28.33;7.97;;;;;;;30.25;31.15;99653.66;10163210;28;20044;-73
2022/08/13 17:00:09;;;;;;;26.75;8.20;;;;;;;29.79;31.40;99609.09;10156259;29;20499;-75
2022/08/13 17:10:30;;;;;;;25.20;8.00;;;;;;;29.39;32.01;99590.97;10159634;28;20056;-73
2022/08/13 17:15:33;;;;;;;25.95;9.20;;;;;;;29.67;32.08;99654.59;10159580;29;20126;-74
2022/08/13 17:20:34;;;;;;;31.17;8.05;;;;;;;29.51;32.26;99657.66;10159485;29;20049;-72
2022/08/13 17:25:35;;;;;;;25.33;8.65;;;;;;;29.45;32.62;99672.59;10169640;28;20051;-74
2022/08/13 17:30:37;;;;;;;24.58;8.77;;;;;;;29.04;33.01;99627.03;10155248;29;20076;-74
2022/08/13 17:35:38;;;;;;;30.50;9.05;;;;;;;28.82;32.70;99605.91;10157051;29;20427;-72
2022/08/13 17:40:39;;;;;;;22.25;8.38;;;;;;;29.16;33.01;99680.38;10141412;29;20052;-74
2022/08/13 17:45:40;;;;;;;20.80;8.02;;;;;;;29.05;33.06;99685.28;10122500;29;20056;-74
2022/08/13 17:50:43;;;;;;;25.42;8.20;;;;;;;28.72;33.63;99654.50;10128554;29;20052;-72
2022/08/13 17:55:44;;;;;;;23.17;8.23;;;;;;;28.27;33.85;99607.84;10127786;29;20127;-73
2022/08/13 18:00:46;;;;;;;26.13;8.68;;;;;;;28.61;34.17;99673.84;10142318;29;20047;-73
2022/08/13 18:05:48;;;;;;;36.35;9.55;;;;;;;28.20;34.41;99627.38;10127320;29;20633;-72
2022/08/13 18:10:50;;;;;;;27.75;8.82;;;;;;;27.95;34.66;99606.84;10127658;29;20749;-74
2022/08/13 18:15:52;;;;;;;26.35;8.60;;;;;;;28.10;34.84;99663.88;10142373;28;20040;-75
2022/08/13 18:20:52;;;;;;;28.55;9.65;;;;;;;28.08;35.24;99668.03;10127168;28;20441;-74
2022/08/13 18:25:54;;;;;;;36.33;9.77;;;;;;;27.97;35.23;99665.50;10127431;28;20097;-72
2022/08/13 18:30:56;;;;;;;34.95;9.68;;;;;;;27.30;35.48;99566.72;10126629;29;20049;-73
2022/08/13 18:35:56;;;;;;;34.97;9.23;;;;;;;27.38;36.00;99581.63;10141438;29;20143;-75
2022/08/13 18:40:57;;;;;;;28.20;7.72;;;;;;;27.15;36.39;99559.63;10171640;29;20139;-72
2022/08/13 18:45:58;;;;;;;31.65;7.82;;;;;;;27.62;36.46;99634.13;10150366;29;20165;-72
2022/08/13 18:50:59;;;;;;;17.55;6.85;;;;;;;27.50;36.13;99623.69;10144055;29;20153;-72
2022/08/13 18:56:02;;;;;;;16.17;8.32;;;;;;;27.47;36.41;99627.00;10130374;29;20052;-73
2022/08/13 19:01:04;;;;;;;;;;;;;;;27.52;36.60;99640.56;10130739;29;20075;-74
2022/08/13 19:06:05;;;;;;;23.33;11.05;;;;;;;27.25;37.05;99640.44;10129892;29;19920;-71
2022/08/13 19:11:06;;;;;;;29.02;11.38;;;;;;;27.13;37.83;99643.56;10130918;29;20044;-74
2022/08/13 19:16:06;;;;;;;21.48;10.77;;;;;;;26.49;38.79;99550.47;10129563;29;20407;-73
2022/08/13 19:21:07;;;;;;;21.67;11.30;;;;;;;26.84;39.62;99630.09;10129010;28;20139;-73
2022/08/13 19:26:08;;;;;;;24.60;11.20;;;;;;;26.81;40.51;99634.22;10129827;29;20510;-73
2022/08/13 19:31:10;;;;;;;22.70;10.60;;;;;;;26.57;41.38;99608.94;10130368;29;20067;-73
2022/08/13 19:36:12;;;;;;;20.40;9.52;;;;;;;26.50;42.91;99606.53;10128831;29;20467;-72
2022/08/13 19:41:14;;;;;;;17.80;9.40;;;;;;;26.39;43.81;99596.88;10129548;29;20048;-72
2022/08/13 19:46:17;;;;;;;20.63;8.98;;;;;;;26.30;44.58;99583.09;10129630;29;20041;-72
2022/08/13 19:51:19;;;;;;;;;;;;;;;26.48;45.84;99610.66;10129659;29;20492;-73
2022/08/13 19:56:20;;;;;;;20.67;8.65;;;;;;;26.22;46.47;99600.06;10128554;29;20022;-74
2022/08/13 20:01:21;;;;;;;21.23;9.10;;;;;;;25.93;47.31;99565.53;10128144;29;20123;-75
2022/08/13 20:06:22;;;;;;;18.67;9.45;;;;;;;26.04;48.13;99606.25;10128720;29;20106;-74
2022/08/13 20:11:23;;;;;;;15.50;9.02;;;;;;;25.79;48.83;99580.09;10128742;29;20186;-73
2022/08/13 20:16:25;;;;;;;18.23;9.98;;;;;;;25.91;49.15;99603.09;10127977;29;20470;-72
2022/08/13 20:21:29;;;;;;;12.23;8.13;;;;;;;25.83;49.63;99606.44;10128564;29;20411;-74
2022/08/13 20:26:30;;;;;;;15.27;8.30;;;;;;;25.61;50.57;99582.44;10127822;29;20048;-73
2022/08/13 20:31:31;;;;;;;16.90;8.27;;;;;;;25.44;51.07;99566.53;10128593;29;20044;-73
2022/08/13 20:36:32;;;;;;;12.68;7.32;;;;;;;25.60;51.84;99605.25;10128096;29;20065;-72
2022/08/13 20:41:32;;;;;;;18.30;8.02;;;;;;;25.42;52.16;99581.50;10128104;29;20597;-72
2022/08/13 20:46:34;;;;;;;11.07;8.38;;;;;;;25.40;52.96;99595.38;10128093;29;20161;-73
2022/08/13 20:51:35;;;;;;;16.05;8.32;;;;;;;25.40;53.14;99597.31;10128844;29;20055;-73
2022/08/13 20:56:35;;;;;;;16.38;10.07;;;;;;;25.30;54.29;99592.72;10127574;29;20055;-73
2022/08/13 21:01:36;;;;;;;21.55;10.70;;;;;;;24.87;54.40;99534.59;10127515;29;20075;-73
2022/08/13 21:06:37;;;;;;;19.35;10.13;;;;;;;25.17;54.96;99594.19;10124673;29;20045;-74
2022/08/13 21:11:38;;;;;;;19.67;9.35;;;;;;;25.09;55.48;99578.44;10138148;29;20130;-73
2022/08/13 21:16:39;;;;;;;14.43;9.70;;;;;;;24.89;55.90;99554.13;10142888;29;20131;-72
2022/08/13 21:21:40;;;;;;;15.88;9.20;;;;;;;24.88;56.44;99566.91;10162343;29;20048;-72
2022/08/13 21:26:40;;;;;;;16.85;9.20;;;;;;;24.87;56.80;99576.16;10171925;29;20094;-72
2022/08/13 21:31:41;;;;;;;13.48;8.25;;;;;;;24.67;57.25;99540.97;10172354;29;20041;-75
2022/08/13 21:36:42;;;;;;;22.00;8.30;;;;;;;24.65;57.97;99552.13;10171791;28;20146;-74
2022/08/13 21:41:43;;;;;;;11.70;8.02;;;;;;;24.55;58.11;99544.81;10172079;29;20102;-72
2022/08/13 21:46:44;;;;;;;20.55;9.80;;;;;;;24.21;58.31;99490.41;10171314;29;20072;-72
2022/08/13 21:51:45;;;;;;;14.88;8.10;;;;;;;24.58;59.13;99562.47;10172053;29;20075;-73
2022/08/13 21:56:46;;;;;;;15.68;8.80;;;;;;;24.59;59.37;99570.34;10171521;29;20040;-72
2022/08/13 22:01:47;;;;;;;14.50;9.38;;;;;;;24.17;59.45;99496.66;10186724;29;20098;-72
2022/08/13 22:06:48;;;;;;;16.90;9.23;;;;;;;24.51;59.46;99551.91;10170742;29;20139;-72
2022/08/13 22:11:49;;;;;;;15.50;9.40;;;;;;;23.99;59.96;99477.22;10171245;29;20051;-72
2022/08/13 22:16:51;;;;;;;15.70;8.70;;;;;;;23.92;60.49;99472.09;10171215;29;20048;-72
2022/08/13 22:21:52;;;;;;;14.38;8.70;;;;;;;24.52;60.48;99577.16;10169673;29;20046;-72
2022/08/13 22:26:52;;;;;;;16.92;7.78;;;;;;;24.25;60.33;99525.94;10170541;29;20475;-71
2022/08/13 22:31:58;;;;;;;16.75;8.60;;;;;;;24.12;60.58;99506.47;10170828;29;20047;-72
2022/08/13 22:36:59;;;;;;;16.00;8.38;;;;;;;24.45;60.60;99572.03;10170387;29;20562;-72
2022/08/13 22:42:00;;;;;;;30.45;9.50;;;;;;;24.40;60.61;99563.06;10170090;29;20056;-73
2022/08/13 22:47:01;;;;;;;16.13;8.68;;;;;;;24.43;60.77;99570.69;10169570;29;20036;-73
2022/08/13 22:52:02;;;;;;;24.30;8.80;;;;;;;24.34;61.11;99560.38;10170116;29;20502;-72
2022/08/13 22:57:03;;;;;;;14.05;8.50;;;;;;;24.36;60.89;99568.25;10169977;29;20055;-73
2022/08/13 23:02:04;;;;;;;14.35;8.60;;;;;;;24.27;61.22;99564.50;10170238;29;20044;-72
2022/08/13 23:07:05;;;;;;;11.32;7.85;;;;;;;24.32;61.33;99572.59;10168785;29;20041;-73
2022/08/13 23:12:06;;;;;;;17.35;8.85;;;;;;;24.24;61.21;99562.34;10169396;29;20048;-72
2022/08/13 23:17:07;;;;;;;16.35;8.60;;;;;;;24.06;61.56;99548.28;10168902;29;20040;-72
2022/08/13 23:22:09;;;;;;;15.32;8.50;;;;;;;23.72;61.61;99498.47;10170070;29;20048;-72
2022/08/13 23:27:11;;;;;;;18.05;8.27;;;;;;;23.54;61.55;99486.28;10169284;29;20076;-72
2022/08/13 23:32:12;;;;;;;14.52;8.90;;;;;;;23.54;62.18;99500.63;10168787;29;20151;-73
2022/08/13 23:37:13;;;;;;;16.20;8.93;;;;;;;23.23;62.03;99453.81;10168653;29;20194;-73
2022/08/13 23:42:15;;;;;;;14.77;8.63;;;;;;;23.33;62.16;99483.59;10168674;29;20134;-73
2022/08/13 23:47:16;;;;;;;18.33;9.15;;;;;;;23.69;62.53;99567.56;10167895;29;20044;-73
2022/08/13 23:52:17;;;;;;;14.23;9.07;;;;;;;23.69;62.34;99565.72;10168286;29;20044;-73
2022/08/13 23:57:18;;;;;;;12.77;8.73;;;;;;;23.60;62.77;99561.91;10166408;29;20194;-73
